createdAt,value
2022-12-12T00:00:43.670Z,56.08
2022-12-12T00:02:45.898Z,56.07
2022-12-12T00:04:48.172Z,56.48
2022-12-12T00:06:50.569Z,56.48
2022-12-12T00:08:52.944Z,56.03
2022-12-12T00:10:55.154Z,55.84
2022-12-12T00:12:57.599Z,55.67
2022-12-12T00:14:59.896Z,55.71
2022-12-12T00:17:02.017Z,55.90
2022-12-12T00:19:04.086Z,56.40
2022-12-12T00:21:12.879Z,56.38
2022-12-12T00:23:18.033Z,56.15
2022-12-12T00:25:20.290Z,56.21
2022-12-12T00:27:22.329Z,56.43
2022-12-12T00:29:24.437Z,56.21
2022-12-12T00:31:27.527Z,56.39
2022-12-12T00:33:29.671Z,57.08
2022-12-12T00:35:31.835Z,56.88
2022-12-12T00:37:33.966Z,56.89
2022-12-12T00:39:35.917Z,57.10
2022-12-12T00:41:38.149Z,57.30
2022-12-12T00:43:40.472Z,57.05
2022-12-12T00:45:42.512Z,57.09
2022-12-12T00:47:44.623Z,57.22
2022-12-12T00:49:46.715Z,57.51
2022-12-12T00:51:48.891Z,57.37
2022-12-12T00:53:51.991Z,57.54
2022-12-12T00:55:58.562Z,57.13
2022-12-12T00:58:00.681Z,57.44
2022-12-12T01:00:04.373Z,57.29
2022-12-12T01:02:06.521Z,57.34
2022-12-12T01:04:08.676Z,57.25
2022-12-12T01:06:11.205Z,57.38
2022-12-12T01:08:13.899Z,57.36
2022-12-12T01:10:15.982Z,56.97
2022-12-12T01:12:18.276Z,56.69
2022-12-12T01:14:21.222Z,56.65
2022-12-12T01:16:24.144Z,56.56
2022-12-12T01:18:26.469Z,56.76
2022-12-12T01:20:29.173Z,56.44
2022-12-12T01:22:34.042Z,56.87
2022-12-12T01:24:36.351Z,56.88
2022-12-12T01:26:41.595Z,56.92
2022-12-12T01:28:45.096Z,56.75
2022-12-12T01:30:47.128Z,56.89
2022-12-12T01:32:49.673Z,57.06
2022-12-12T01:34:51.774Z,56.82
2022-12-12T01:36:54.127Z,56.80
2022-12-12T01:39:00.800Z,56.80
2022-12-12T01:41:02.733Z,56.74
2022-12-12T01:43:11.854Z,56.37
2022-12-12T01:45:51.308Z,56.56
2022-12-12T01:47:53.619Z,56.78
2022-12-12T01:50:10.701Z,57.06
2022-12-12T01:52:20.101Z,56.70
2022-12-12T01:54:34.416Z,57.08
2022-12-12T01:56:39.978Z,57.12
2022-12-12T01:58:46.186Z,57.04
2022-12-12T02:00:48.941Z,57.18
2022-12-12T02:02:52.689Z,57.20
2022-12-12T02:04:54.933Z,56.66
2022-12-12T02:06:57.528Z,56.89
2022-12-12T02:09:04.397Z,57.02
2022-12-12T02:11:06.462Z,57.47
2022-12-12T02:13:20.568Z,57.35
2022-12-12T02:15:27.394Z,57.17
2022-12-12T02:17:47.386Z,57.31
2022-12-12T02:20:09.610Z,57.83
2022-12-12T02:22:48.041Z,57.35
2022-12-12T02:24:59.193Z,57.79
2022-12-12T02:27:32.384Z,58.12
2022-12-12T02:29:55.989Z,57.91
2022-12-12T02:32:19.765Z,58.33
2022-12-12T02:34:24.451Z,58.09
2022-12-12T02:36:32.264Z,58.32
2022-12-12T02:38:49.231Z,58.44
2022-12-12T02:41:00.263Z,58.29
2022-12-12T02:43:19.613Z,58.52
2022-12-12T02:45:30.160Z,58.53
2022-12-12T02:47:35.855Z,58.67
2022-12-12T02:49:56.555Z,58.85
2022-12-12T02:52:03.066Z,58.67
2022-12-12T02:54:06.653Z,58.65
2022-12-12T02:56:47.118Z,58.61
2022-12-12T02:58:52.722Z,58.44
2022-12-12T03:01:13.411Z,58.57
2022-12-12T03:03:57.521Z,58.46
2022-12-12T03:06:57.146Z,58.38
2022-12-12T03:09:28.720Z,58.28
2022-12-12T03:12:07.261Z,58.36
2022-12-12T03:14:37.607Z,58.45
2022-12-12T03:16:48.302Z,58.17
2022-12-12T03:18:57.354Z,58.08
2022-12-12T03:21:16.744Z,58.00
2022-12-12T03:23:25.331Z,57.94
2022-12-12T03:25:37.041Z,58.24
2022-12-12T03:28:07.237Z,57.92
2022-12-12T03:30:13.933Z,58.01
2022-12-12T03:32:22.573Z,57.96
2022-12-12T03:34:30.924Z,58.44
2022-12-12T03:36:44.245Z,58.47
2022-12-12T03:39:06.347Z,58.04
2022-12-12T03:41:16.059Z,58.24
2022-12-12T03:43:32.792Z,58.38
2022-12-12T03:45:56.017Z,58.60
2022-12-12T03:48:27.611Z,58.29
2022-12-12T03:50:43.597Z,58.35
2022-12-12T03:52:53.555Z,58.34
2022-12-12T03:55:01.525Z,58.52
2022-12-12T03:57:30.415Z,58.57
2022-12-12T03:59:42.532Z,59.13
2022-12-12T04:01:52.413Z,59.14
2022-12-12T04:04:09.427Z,59.12
2022-12-12T04:06:27.835Z,59.47
2022-12-12T04:08:30.746Z,59.33
2022-12-12T04:11:02.529Z,59.23
2022-12-12T04:13:21.690Z,59.15
2022-12-12T04:15:54.386Z,59.35
2022-12-12T04:18:11.444Z,59.48
2022-12-12T04:20:44.556Z,59.60
2022-12-12T04:23:25.458Z,59.58
2022-12-12T04:25:57.680Z,59.39
2022-12-12T04:28:05.738Z,59.63
2022-12-12T04:30:10.489Z,59.50
2022-12-12T04:32:20.296Z,59.93
2022-12-12T04:34:35.052Z,59.79
2022-12-12T04:36:40.110Z,60.27
2022-12-12T04:38:45.529Z,59.79
2022-12-12T04:40:53.764Z,59.86
2022-12-12T04:43:03.597Z,59.86
2022-12-12T04:45:24.316Z,59.59
2022-12-12T04:47:30.438Z,59.58
2022-12-12T04:49:35.785Z,59.45
2022-12-12T04:51:42.574Z,59.54
2022-12-12T04:53:49.890Z,59.52
2022-12-12T04:55:57.504Z,59.33
2022-12-12T04:58:01.732Z,59.51
2022-12-12T05:00:04.118Z,59.47
2022-12-12T05:02:49.883Z,59.83
2022-12-12T05:05:02.754Z,59.61
2022-12-12T05:07:12.345Z,59.09
2022-12-12T05:09:18.135Z,59.23
2022-12-12T05:11:22.455Z,59.43
2022-12-12T05:13:29.727Z,59.23
2022-12-12T05:15:31.669Z,59.42
2022-12-12T05:17:46.101Z,59.25
2022-12-12T05:19:48.319Z,59.40
2022-12-12T05:21:50.553Z,59.50
2022-12-12T05:23:52.716Z,59.21
2022-12-12T05:25:54.597Z,59.23
2022-12-12T05:27:57.002Z,59.45
2022-12-12T05:30:00.681Z,59.57
2022-12-12T05:32:03.384Z,60.17
2022-12-12T05:34:06.044Z,59.90
2022-12-12T05:36:08.342Z,59.87
2022-12-12T05:38:10.488Z,60.08
2022-12-12T05:40:13.826Z,60.22
2022-12-12T05:42:15.754Z,60.24
2022-12-12T05:44:18.005Z,60.00
2022-12-12T05:46:20.376Z,60.52
2022-12-12T05:48:24.551Z,60.37
2022-12-12T05:50:26.806Z,60.60
2022-12-12T05:52:28.993Z,60.63
2022-12-12T05:54:33.750Z,60.71
2022-12-12T05:56:35.849Z,60.89
2022-12-12T05:58:39.981Z,60.64
2022-12-12T06:00:42.306Z,60.76
2022-12-12T06:02:44.253Z,60.99
2022-12-12T06:04:46.389Z,60.74
2022-12-12T06:06:50.626Z,60.78
2022-12-12T06:08:52.811Z,60.86
2022-12-12T06:10:59.532Z,61.23
2022-12-12T06:13:01.730Z,61.03
2022-12-12T06:15:04.153Z,61.04
2022-12-12T06:17:06.896Z,61.01
2022-12-12T06:19:09.121Z,61.41
2022-12-12T06:21:13.220Z,61.56
2022-12-12T06:23:15.460Z,61.27
2022-12-12T06:25:17.710Z,61.37
2022-12-12T06:27:20.139Z,61.31
2022-12-12T06:29:22.321Z,61.74
2022-12-12T06:31:24.693Z,61.70
2022-12-12T06:33:28.403Z,61.86
2022-12-12T06:35:31.042Z,61.34
2022-12-12T06:37:33.523Z,61.61
2022-12-12T06:39:35.442Z,61.32
2022-12-12T06:41:37.730Z,61.54
2022-12-12T06:43:40.914Z,61.38
2022-12-12T06:45:42.988Z,61.53
2022-12-12T06:47:45.066Z,61.58
2022-12-12T06:49:47.371Z,62.09
2022-12-12T06:51:49.425Z,61.65
2022-12-12T06:53:51.672Z,61.98
2022-12-12T06:55:56.111Z,61.60
2022-12-12T06:57:58.504Z,61.80
2022-12-12T07:00:00.988Z,61.83
2022-12-12T07:02:03.788Z,62.35
2022-12-12T07:04:05.987Z,62.44
2022-12-12T07:06:11.044Z,61.98
2022-12-12T07:08:15.377Z,61.64
2022-12-12T07:10:21.292Z,62.04
2022-12-12T07:12:23.713Z,62.21
2022-12-12T07:14:25.863Z,61.98
2022-12-12T07:16:28.497Z,62.09
2022-12-12T07:18:37.311Z,62.37
2022-12-12T07:20:41.095Z,62.05
2022-12-12T07:22:43.494Z,62.17
2022-12-12T07:24:45.565Z,62.09
2022-12-12T07:26:47.727Z,62.30
2022-12-12T07:28:51.680Z,62.19
2022-12-12T07:31:01.861Z,62.36
2022-12-12T07:33:03.929Z,62.23
2022-12-12T07:35:06.330Z,62.09
2022-12-12T07:37:09.195Z,62.27
2022-12-12T07:39:15.862Z,62.04
2022-12-12T07:41:23.531Z,62.16
2022-12-12T07:43:26.449Z,62.32
2022-12-12T07:45:29.174Z,62.02
2022-12-12T07:47:31.688Z,62.09
2022-12-12T07:49:33.832Z,61.70
2022-12-12T07:51:36.590Z,61.78
2022-12-12T07:53:39.025Z,61.63
2022-12-12T07:55:41.432Z,61.71
2022-12-12T07:57:43.723Z,61.83
2022-12-12T07:59:46.184Z,61.65
2022-12-12T08:01:48.332Z,61.81
2022-12-12T08:03:51.340Z,61.94
2022-12-12T08:05:53.459Z,61.54
2022-12-12T08:07:55.477Z,61.56
2022-12-12T08:09:57.628Z,61.73
2022-12-12T08:12:00.646Z,61.14
2022-12-12T08:14:02.672Z,61.52
2022-12-12T08:16:07.045Z,61.62
2022-12-12T08:18:09.312Z,61.63
2022-12-12T08:20:12.041Z,61.72
2022-12-12T08:22:14.166Z,62.04
2022-12-12T08:24:17.067Z,61.84
2022-12-12T08:26:19.754Z,61.73
2022-12-12T08:28:21.989Z,61.64
2022-12-12T08:30:24.129Z,61.99
2022-12-12T08:32:26.333Z,61.88
2022-12-12T08:34:28.552Z,61.50
2022-12-12T08:36:32.504Z,61.35
2022-12-12T08:38:34.655Z,61.08
2022-12-12T08:40:36.896Z,61.28
2022-12-12T08:42:39.151Z,61.06
2022-12-12T08:44:41.530Z,60.96
2022-12-12T08:46:43.807Z,61.11
2022-12-12T08:48:47.381Z,61.16
2022-12-12T08:50:52.631Z,61.19
2022-12-12T08:52:54.740Z,61.31
2022-12-12T08:54:57.125Z,60.78
2022-12-12T08:56:59.453Z,60.99
2022-12-12T08:59:02.422Z,61.18
2022-12-12T09:01:10.391Z,61.07
2022-12-12T09:03:14.696Z,60.90
2022-12-12T09:05:16.751Z,60.81
2022-12-12T09:07:20.257Z,61.00
2022-12-12T09:09:22.624Z,61.08
2022-12-12T09:11:25.262Z,61.02
2022-12-12T09:13:27.360Z,60.30
2022-12-12T09:15:29.681Z,60.33
2022-12-12T09:17:32.186Z,59.82
2022-12-12T09:19:34.313Z,59.84
2022-12-12T09:21:37.991Z,60.26
2022-12-12T09:23:40.087Z,60.57
2022-12-12T09:25:42.846Z,60.36
2022-12-12T09:27:45.284Z,60.21
2022-12-12T09:29:47.560Z,59.95
2022-12-12T09:31:50.053Z,60.65
2022-12-12T09:33:52.450Z,60.24
2022-12-12T09:36:01.892Z,60.24
2022-12-12T09:38:08.162Z,60.59
2022-12-12T09:40:20.235Z,60.37
2022-12-12T09:42:28.034Z,60.34
2022-12-12T09:44:30.008Z,60.51
2022-12-12T09:46:49.266Z,60.66
2022-12-12T09:48:51.706Z,60.40
2022-12-12T09:50:53.898Z,60.56
2022-12-12T09:57:17.826Z,60.49
2022-12-12T09:59:35.683Z,59.91
2022-12-12T10:02:01.618Z,59.85
2022-12-12T10:04:24.993Z,60.25
2022-12-12T10:06:38.012Z,60.29
2022-12-12T10:09:07.344Z,60.83
2022-12-12T10:11:32.621Z,60.51
2022-12-12T10:13:37.379Z,60.45
2022-12-12T10:15:46.834Z,60.07
2022-12-12T10:17:49.241Z,60.08
2022-12-12T10:19:56.057Z,60.20
2022-12-12T10:22:36.333Z,59.80
2022-12-12T10:24:49.310Z,59.19
2022-12-12T10:26:52.391Z,59.83
2022-12-12T10:29:22.163Z,59.20
2022-12-12T10:31:45.684Z,59.13
2022-12-12T10:34:33.337Z,58.78
2022-12-12T10:36:53.795Z,59.26
2022-12-12T10:38:55.635Z,58.82
2022-12-12T10:41:04.804Z,58.83
2022-12-12T10:43:11.676Z,59.17
2022-12-12T10:45:26.763Z,58.82
2022-12-12T10:47:28.936Z,59.17
2022-12-12T10:49:31.975Z,58.73
2022-12-12T10:51:34.015Z,59.14
2022-12-12T10:53:36.236Z,58.69
2022-12-12T10:55:55.275Z,58.74
2022-12-12T10:58:03.877Z,58.84
2022-12-12T11:00:27.744Z,58.09
2022-12-12T11:02:37.989Z,57.75
2022-12-12T11:04:40.134Z,58.16
2022-12-12T11:07:18.096Z,58.25
2022-12-12T11:09:29.223Z,57.90
2022-12-12T11:11:31.548Z,57.75
2022-12-12T11:13:52.567Z,57.48
2022-12-12T11:16:12.937Z,57.80
2022-12-12T11:18:18.634Z,57.21
2022-12-12T11:20:21.143Z,57.10
2022-12-12T11:22:24.734Z,57.18
2022-12-12T11:24:32.691Z,57.16
2022-12-12T11:26:42.585Z,57.17
2022-12-12T11:28:52.416Z,57.29
2022-12-12T11:31:01.307Z,56.97
2022-12-12T11:33:05.614Z,57.14
2022-12-12T11:35:29.587Z,56.08
2022-12-12T11:37:54.138Z,56.41
2022-12-12T11:39:57.442Z,55.79
2022-12-12T11:42:06.099Z,55.99
2022-12-12T11:44:25.901Z,55.00
2022-12-12T11:46:32.653Z,55.93
2022-12-12T11:48:48.743Z,55.75
2022-12-12T11:50:50.880Z,56.24
2022-12-12T11:53:01.909Z,55.68
2022-12-12T11:55:04.543Z,55.31
2022-12-12T11:57:11.160Z,55.40
2022-12-12T11:59:15.983Z,54.98
2022-12-12T12:01:22.612Z,55.45
2022-12-12T12:03:33.730Z,55.04
2022-12-12T12:05:41.615Z,55.27
2022-12-12T12:07:58.831Z,55.54
2022-12-12T12:10:17.292Z,54.54
2022-12-12T12:12:35.554Z,54.87
2022-12-12T12:14:54.666Z,55.08
2022-12-12T12:17:17.566Z,53.68
2022-12-12T12:19:30.258Z,54.04
2022-12-12T12:21:35.213Z,54.01
2022-12-12T12:23:55.546Z,54.50
2022-12-12T12:26:03.660Z,55.07
2022-12-12T12:28:05.660Z,54.70
2022-12-12T12:30:25.991Z,54.85
2022-12-12T12:32:53.236Z,54.18
2022-12-12T12:35:01.742Z,54.46
2022-12-12T12:37:06.345Z,54.75
2022-12-12T12:39:58.498Z,53.71
2022-12-12T12:42:12.452Z,54.05
2022-12-12T12:44:16.291Z,54.56
2022-12-12T12:46:27.413Z,54.39
2022-12-12T12:48:39.445Z,54.65
2022-12-12T12:50:53.033Z,54.50
2022-12-12T12:52:58.316Z,54.59
2022-12-12T12:55:01.374Z,54.42
2022-12-12T12:57:25.749Z,54.39
2022-12-12T12:59:37.140Z,54.57
2022-12-12T13:01:45.764Z,54.31
2022-12-12T13:04:05.492Z,54.63
2022-12-12T13:06:15.770Z,55.27
2022-12-12T13:08:23.705Z,54.86
2022-12-12T13:10:31.160Z,54.15
2022-12-12T13:12:44.464Z,54.43
2022-12-12T13:14:59.960Z,54.37
2022-12-12T13:17:06.974Z,54.19
2022-12-12T13:19:21.758Z,54.19
2022-12-12T13:21:33.390Z,54.39
2022-12-12T13:23:56.312Z,54.21
2022-12-12T13:26:06.651Z,54.46
2022-12-12T13:28:17.983Z,54.34
2022-12-12T13:30:24.480Z,54.10
2022-12-12T13:33:01.418Z,53.64
2022-12-12T13:35:09.759Z,54.53
2022-12-12T13:37:17.430Z,54.26
2022-12-12T13:39:35.307Z,54.16
2022-12-12T13:42:10.606Z,54.64
2022-12-12T13:44:36.073Z,54.91
2022-12-12T13:46:40.246Z,54.25
2022-12-12T13:48:47.250Z,54.72
2022-12-12T13:51:36.336Z,54.99
2022-12-12T13:53:38.574Z,55.01
2022-12-12T13:55:40.736Z,55.47
2022-12-12T13:57:59.081Z,55.31
2022-12-12T14:00:03.799Z,55.26
2022-12-12T14:02:33.561Z,55.14
2022-12-12T14:04:37.990Z,55.15
2022-12-12T14:06:40.089Z,55.18
2022-12-12T14:08:49.647Z,55.38
2022-12-12T14:10:59.725Z,55.52
2022-12-12T14:13:23.182Z,55.85
2022-12-12T14:15:32.019Z,55.39
2022-12-12T14:17:42.347Z,54.73
2022-12-12T14:19:49.943Z,54.86
2022-12-12T14:21:52.162Z,54.44
2022-12-12T14:23:54.346Z,54.44
2022-12-12T14:25:56.950Z,54.45
2022-12-12T14:28:16.528Z,53.97
2022-12-12T14:30:26.233Z,54.53
2022-12-12T14:32:44.283Z,54.11
2022-12-12T14:35:04.510Z,54.40
2022-12-12T14:37:17.069Z,53.82
2022-12-12T14:39:39.423Z,53.27
2022-12-12T14:41:44.578Z,53.56
2022-12-12T14:44:37.035Z,53.56
2022-12-12T14:46:19.544Z,53.43
2022-12-12T14:48:24.443Z,52.79
2022-12-12T14:50:26.748Z,53.31
2022-12-12T14:52:29.553Z,53.30
2022-12-12T14:54:32.007Z,53.26
2022-12-12T14:56:49.090Z,52.14
2022-12-12T14:59:19.207Z,52.46
2022-12-12T15:01:52.420Z,52.85
2022-12-12T15:03:55.354Z,53.09
2022-12-12T15:06:19.329Z,53.33
2022-12-12T15:08:21.577Z,53.46
2022-12-12T15:10:27.649Z,53.62
2022-12-12T15:12:35.772Z,53.57
2022-12-12T15:14:39.948Z,53.81
2022-12-12T15:16:52.097Z,53.67
2022-12-12T15:18:59.614Z,53.65
2022-12-12T15:21:01.838Z,54.54
2022-12-12T15:23:07.224Z,54.02
2022-12-12T15:25:17.927Z,54.25
2022-12-12T15:27:37.311Z,54.13
2022-12-12T15:29:42.817Z,53.94
2022-12-12T15:31:47.331Z,54.18
2022-12-12T15:33:52.299Z,53.89
2022-12-12T15:36:01.730Z,54.18
2022-12-12T15:38:12.170Z,54.20
2022-12-12T15:40:18.657Z,53.98
2022-12-12T15:42:20.876Z,54.12
2022-12-12T15:44:23.072Z,53.55
2022-12-12T15:46:30.721Z,53.05
2022-12-12T15:48:33.034Z,53.68
2022-12-12T15:50:44.538Z,53.55
2022-12-12T15:53:26.423Z,53.37
2022-12-12T15:55:28.884Z,53.35
2022-12-12T15:57:43.820Z,53.02
2022-12-12T16:00:32.295Z,53.37
2022-12-12T16:02:38.579Z,53.15
2022-12-12T16:05:31.048Z,53.40
2022-12-12T16:07:37.889Z,53.65
2022-12-12T16:09:58.052Z,53.74
2022-12-12T16:12:00.555Z,53.82
2022-12-12T16:14:03.323Z,53.99
2022-12-12T16:16:50.409Z,53.82
2022-12-12T16:18:52.523Z,54.16
2022-12-12T16:20:56.839Z,54.06
2022-12-12T16:23:22.928Z,53.99
2022-12-12T16:25:28.708Z,53.75
2022-12-12T16:27:31.333Z,54.07
2022-12-12T16:29:33.384Z,53.92
2022-12-12T16:31:35.558Z,54.09
2022-12-12T16:33:39.711Z,53.87
2022-12-12T16:35:41.769Z,53.96
2022-12-12T16:37:43.894Z,53.52
2022-12-12T16:39:46.418Z,53.50
2022-12-12T16:41:48.931Z,53.13
2022-12-12T16:43:51.237Z,53.46
2022-12-12T16:45:54.960Z,53.41
2022-12-12T16:47:58.664Z,53.51
2022-12-12T16:50:00.778Z,53.56
2022-12-12T16:52:02.937Z,52.79
2022-12-12T16:54:05.304Z,53.08
2022-12-12T16:56:07.611Z,53.44
2022-12-12T16:58:10.235Z,53.33
2022-12-12T17:00:13.759Z,53.14
2022-12-12T17:02:22.558Z,52.87
2022-12-12T17:04:25.337Z,52.61
2022-12-12T17:06:27.503Z,52.21
2022-12-12T17:08:29.931Z,52.24
2022-12-12T17:10:34.607Z,51.55
2022-12-12T17:12:38.825Z,51.47
2022-12-12T17:14:40.798Z,52.31
2022-12-12T17:16:43.029Z,51.80
2022-12-12T17:18:45.264Z,51.93
2022-12-12T17:20:47.899Z,51.92
2022-12-12T17:22:52.105Z,51.65
2022-12-12T17:24:54.166Z,52.34
2022-12-12T17:26:56.395Z,52.46
2022-12-12T17:28:58.353Z,52.75
2022-12-12T17:31:01.432Z,52.55
2022-12-12T17:33:18.138Z,52.74
2022-12-12T17:35:20.324Z,52.77
2022-12-12T17:37:23.391Z,52.63
2022-12-12T17:39:25.902Z,52.54
2022-12-12T17:41:28.084Z,52.23
2022-12-12T17:43:30.527Z,51.59
2022-12-12T17:45:32.738Z,52.01
2022-12-12T17:47:35.200Z,52.26
2022-12-12T17:49:37.526Z,52.39
2022-12-12T17:51:39.561Z,52.44
2022-12-12T17:53:41.848Z,52.59
2022-12-12T17:55:52.921Z,52.87
2022-12-12T17:57:57.955Z,52.44
2022-12-12T18:00:02.904Z,52.29
2022-12-12T18:02:14.334Z,51.96
2022-12-12T18:04:16.671Z,51.93
2022-12-12T18:06:20.206Z,52.18
2022-12-12T18:08:22.328Z,52.20
2022-12-12T18:10:26.918Z,51.91
2022-12-12T18:12:29.084Z,52.36
2022-12-12T18:14:48.139Z,51.74
2022-12-12T18:16:55.782Z,52.35
2022-12-12T18:18:58.196Z,52.05
2022-12-12T18:21:05.552Z,52.06
2022-12-12T18:23:10.283Z,52.24
2022-12-12T18:25:19.865Z,51.98
2022-12-12T18:27:27.621Z,52.20
2022-12-12T18:29:29.803Z,52.21
2022-12-12T18:31:32.719Z,51.86
2022-12-12T18:33:35.477Z,51.76
2022-12-12T18:35:37.853Z,51.98
2022-12-12T18:37:39.872Z,51.86
2022-12-12T18:39:42.112Z,52.18
2022-12-12T18:41:44.268Z,52.48
2022-12-12T18:43:46.812Z,52.46
2022-12-12T18:45:52.269Z,52.52
2022-12-12T18:47:55.802Z,52.57
2022-12-12T18:49:58.453Z,52.41
2022-12-12T18:52:06.723Z,52.64
2022-12-12T18:54:14.225Z,52.28
2022-12-12T18:56:28.936Z,52.00
2022-12-12T18:58:31.333Z,52.67
2022-12-12T19:00:33.495Z,52.53
2022-12-12T19:02:38.573Z,52.53
2022-12-12T19:04:42.161Z,52.28
2022-12-12T19:06:44.252Z,52.59
2022-12-12T19:08:46.630Z,52.77
2022-12-12T19:10:48.820Z,52.83
2022-12-12T19:20:57.468Z,53.35
2022-12-12T19:22:59.436Z,52.77
2022-12-12T19:25:01.888Z,52.89
2022-12-12T19:27:03.950Z,53.11
2022-12-12T19:29:17.863Z,52.64
2022-12-12T19:31:19.915Z,53.16
2022-12-12T19:33:22.176Z,52.84
2022-12-12T19:35:24.706Z,53.00
2022-12-12T19:37:26.912Z,53.31
2022-12-12T19:39:30.921Z,52.89
2022-12-12T19:41:34.173Z,52.42
2022-12-12T19:43:36.645Z,53.14
2022-12-12T19:45:38.657Z,52.42
2022-12-12T19:47:40.804Z,52.69
2022-12-12T19:49:43.858Z,52.45
2022-12-12T19:51:46.177Z,52.30
2022-12-12T19:53:54.113Z,52.40
2022-12-12T19:55:56.689Z,51.82
2022-12-12T19:58:00.663Z,51.77
2022-12-12T20:00:03.863Z,51.99
2022-12-12T20:02:12.216Z,52.60
2022-12-12T20:04:24.290Z,52.49
2022-12-12T20:06:30.706Z,52.15
2022-12-12T20:08:34.285Z,52.35
2022-12-12T20:10:37.064Z,52.65
2022-12-12T20:12:46.228Z,52.66
2022-12-12T20:14:54.448Z,52.84
2022-12-12T20:16:57.509Z,52.44
2022-12-12T20:18:59.932Z,52.60
2022-12-12T20:21:03.669Z,52.25
2022-12-12T20:23:07.434Z,52.51
2022-12-12T20:25:09.766Z,52.41
2022-12-12T20:27:12.240Z,52.34
2022-12-12T20:29:14.628Z,52.47
2022-12-12T20:31:19.899Z,52.86
2022-12-12T20:33:21.963Z,52.59
2022-12-12T20:35:24.095Z,52.83
2022-12-12T20:37:26.936Z,52.81
2022-12-12T20:39:30.064Z,52.76
2022-12-12T20:41:38.072Z,52.54
2022-12-12T20:43:41.266Z,53.02
2022-12-12T20:45:43.552Z,52.71
2022-12-12T20:48:11.061Z,52.39
2022-12-12T20:50:36.970Z,52.46
2022-12-12T20:52:40.042Z,52.33
2022-12-12T20:54:42.258Z,52.79
2022-12-12T20:56:46.336Z,52.51
2022-12-12T20:58:59.567Z,52.78
2022-12-12T21:01:02.016Z,53.10
2022-12-12T21:03:04.401Z,52.84
2022-12-12T21:05:08.609Z,52.82
2022-12-12T21:07:10.655Z,53.05
2022-12-12T21:09:17.714Z,52.78
2022-12-12T21:11:29.549Z,52.85
2022-12-12T21:13:31.532Z,52.99
2022-12-12T21:15:33.647Z,52.75
2022-12-12T21:17:35.639Z,53.11
2022-12-12T21:19:37.883Z,52.79
2022-12-12T21:21:42.290Z,52.65
2022-12-12T21:23:44.587Z,52.80
2022-12-12T21:25:47.810Z,52.71
2022-12-12T21:27:50.327Z,53.09
2022-12-12T21:29:52.615Z,53.37
2022-12-12T21:31:54.845Z,53.12
2022-12-12T21:33:57.826Z,53.12
2022-12-12T21:36:08.534Z,53.25
2022-12-12T21:38:12.837Z,53.38
2022-12-12T21:40:15.035Z,53.45
2022-12-12T21:42:18.034Z,52.94
2022-12-12T21:44:21.009Z,53.01
2022-12-12T21:46:25.760Z,53.07
2022-12-12T21:48:29.995Z,53.24
2022-12-12T21:50:32.495Z,53.47
2022-12-12T21:56:21.451Z,53.48
2022-12-12T21:58:23.524Z,53.49
2022-12-12T22:00:27.115Z,53.73
2022-12-12T22:02:29.156Z,53.58
2022-12-12T22:04:32.519Z,53.66
2022-12-12T22:06:36.516Z,54.33
2022-12-12T22:08:42.488Z,54.16
2022-12-12T22:10:44.490Z,53.93
2022-12-12T22:12:57.563Z,53.85
2022-12-12T22:15:01.337Z,54.02
2022-12-12T22:17:05.277Z,53.97
2022-12-12T22:19:11.166Z,54.03
2022-12-12T22:21:15.605Z,53.87
2022-12-12T22:23:18.197Z,54.71
2022-12-12T22:25:20.574Z,54.59
2022-12-12T22:27:22.926Z,54.17
2022-12-12T22:29:25.191Z,54.37
2022-12-12T22:31:31.198Z,54.37
2022-12-12T22:33:35.441Z,54.51
2022-12-12T22:35:37.880Z,54.31
2022-12-12T22:37:42.627Z,54.12
2022-12-12T22:39:44.828Z,54.36
2022-12-12T22:41:47.286Z,54.70
2022-12-12T22:43:54.182Z,54.55
2022-12-12T22:46:02.111Z,54.81
2022-12-12T22:48:04.311Z,54.81
2022-12-12T22:50:07.012Z,54.74
2022-12-12T22:52:08.958Z,54.56
2022-12-12T22:54:11.727Z,54.37
2022-12-12T22:56:14.534Z,54.48
2022-12-12T22:58:17.053Z,54.93
2022-12-12T23:00:19.188Z,54.60
2022-12-12T23:02:25.337Z,54.63
2022-12-12T23:04:27.791Z,54.37
2022-12-12T23:06:32.207Z,54.39
2022-12-12T23:08:34.628Z,54.39
2022-12-12T23:10:37.628Z,54.32
2022-12-12T23:12:40.145Z,54.48
2022-12-12T23:14:42.335Z,54.38
2022-12-12T23:16:45.010Z,54.36
2022-12-12T23:18:48.086Z,54.54
2022-12-12T23:20:50.230Z,54.31
2022-12-12T23:22:52.649Z,54.36
2022-12-12T23:24:54.773Z,54.65
2022-12-12T23:26:59.728Z,54.64
2022-12-12T23:29:01.955Z,54.43
2022-12-12T23:31:09.916Z,54.55
2022-12-12T23:33:12.022Z,54.39
2022-12-12T23:35:14.386Z,54.57
2022-12-12T23:37:17.845Z,54.55
2022-12-12T23:39:20.506Z,54.74
2022-12-12T23:41:23.137Z,54.31
2022-12-12T23:43:25.284Z,54.90
2022-12-12T23:45:29.793Z,54.66
2022-12-12T23:47:31.981Z,54.56
2022-12-12T23:49:33.992Z,54.43
2022-12-12T23:51:39.312Z,54.23
2022-12-12T23:53:41.566Z,54.33
2022-12-12T23:55:43.524Z,54.72
2022-12-12T23:57:45.708Z,54.46
2022-12-12T23:59:48.060Z,54.33
